Time;durP1;ratioP1;P1;durP2;ratioP2;P2;SDS_P1;SDS_P2;PMS_P1;PMS_P2;Temp;Humidity;BMP_temperature;BMP_pressure;BME280_temperature;BME280_humidity;BME280_pressure;Samples;Min_cycle;Max_cycle;Signal;HPM_P1;HPM_P2
2023/06/30 00:02:47;;;;;;;0.00;0.00;;;;;;;23.20;100.00;101427.50;10413196;28;20128;-85
2023/06/30 00:07:49;;;;;;;0.00;0.00;;;;;;;22.99;100.00;101437.47;10420368;28;20053;-84
2023/06/30 00:12:51;;;;;;;0.20;0.20;;;;;;;23.14;100.00;101436.34;10420494;28;20049;-84
2023/06/30 00:17:53;;;;;;;0.00;0.00;;;;;;;22.93;100.00;101437.59;10420375;28;20381;-85
2023/06/30 00:22:54;;;;;;;0.00;0.00;;;;;;;23.27;100.00;101434.41;10403518;28;20053;-85
2023/06/30 00:27:56;;;;;;;0.00;0.00;;;;;;;23.04;100.00;101430.41;10419709;28;20095;-85
2023/06/30 00:32:58;;;;;;;0.00;0.00;;;;;;;23.40;100.00;101427.13;10419525;28;20050;-85
2023/06/30 00:37:59;;;;;;;0.10;0.03;;;;;;;23.83;100.00;101425.41;10435960;28;20049;-85
2023/06/30 00:43:02;;;;;;;0.28;0.28;;;;;;;22.62;100.00;101422.34;10403193;28;20052;-85
2023/06/30 00:48:04;;;;;;;0.00;0.00;;;;;;;22.49;100.00;101432.16;10418887;28;20080;-85
2023/06/30 00:53:06;;;;;;;0.00;0.00;;;;;;;22.26;100.00;101417.63;10418339;28;20071;-85
2023/06/30 00:58:08;;;;;;;0.03;0.03;;;;;;;22.70;100.00;101415.22;10418304;28;20472;-84
2023/06/30 01:03:14;;;;;;;0.43;0.00;;;;;;;22.90;100.00;101411.38;10434787;28;20053;-85
2023/06/30 01:08:23;;;;;;;0.00;0.00;;;;;;;22.93;100.00;101422.72;10418341;28;20045;-85
2023/06/30 01:13:25;;;;;;;0.00;0.00;;;;;;;23.36;100.00;101409.69;10407407;28;20051;-85
2023/06/30 01:18:34;;;;;;;14.18;13.25;;;;;;;23.13;100.00;101414.44;10417589;28;20076;-85
2023/06/30 01:23:40;;;;;;;335.60;119.17;;;;;;;22.22;100.00;101409.81;10401527;28;20451;-85
2023/06/30 01:28:42;;;;;;;145.32;79.05;;;;;;;22.34;100.00;101417.50;10401839;28;20037;-85
2023/06/30 01:33:45;;;;;;;0.10;0.10;;;;;;;22.35;100.00;101420.09;10417752;28;20056;-85
2023/06/30 01:38:46;;;;;;;0.00;0.00;;;;;;;22.33;100.00;101421.00;10402831;28;20060;-84
2023/06/30 01:43:50;;;;;;;0.10;0.08;;;;;;;22.82;100.00;101425.50;10418036;28;20132;-85
2023/06/30 01:48:52;;;;;;;0.45;0.25;;;;;;;22.74;100.00;101427.41;10417693;28;20088;-85
2023/06/30 01:53:54;;;;;;;0.00;0.00;;;;;;;22.07;100.00;101426.63;10418115;28;20046;-85
2023/06/30 01:58:55;;;;;;;0.00;0.00;;;;;;;22.71;100.00;101426.59;10416159;28;20709;-84
2023/06/30 02:03:57;;;;;;;0.00;0.00;;;;;;;22.47;100.00;101423.47;10399604;28;20073;-85
2023/06/30 02:08:59;;;;;;;0.00;0.00;;;;;;;22.28;100.00;101430.72;10432670;28;20042;-85
2023/06/30 02:14:00;;;;;;;0.77;0.32;;;;;;;22.40;100.00;101424.47;10415591;28;20053;-82
2023/06/30 02:19:02;;;;;;;0.00;0.00;;;;;;;22.70;100.00;101420.47;10414174;28;20038;-82
2023/06/30 02:24:04;;;;;;;0.00;0.00;;;;;;;22.92;100.00;101434.13;10413825;28;20088;-83
2023/06/30 02:29:07;;;;;;;0.03;0.03;;;;;;;22.06;100.00;101433.66;10380306;28;20557;-85
2023/06/30 02:34:09;;;;;;;0.00;0.00;;;;;;;21.75;100.00;101430.53;10394321;28;20133;-85
2023/06/30 02:39:10;;;;;;;0.00;0.00;;;;;;;22.13;100.00;101426.53;10427207;28;20041;-84
2023/06/30 02:44:12;;;;;;;0.00;0.00;;;;;;;22.34;100.00;101425.38;10410239;28;20049;-84
2023/06/30 02:49:14;;;;;;;0.00;0.00;;;;;;;22.28;100.00;101434.19;10415352;28;20384;-84
2023/06/30 02:54:16;;;;;;;0.00;0.00;;;;;;;22.03;100.00;101429.31;10393097;28;20478;-83
2023/06/30 02:59:17;;;;;;;0.00;0.00;;;;;;;21.76;100.00;101437.53;10425052;28;20147;-84
2023/06/30 03:04:19;;;;;;;0.00;0.00;;;;;;;21.95;100.00;101430.28;10408476;28;20052;-83
2023/06/30 03:09:22;;;;;;;0.00;0.00;;;;;;;21.93;100.00;101426.84;10425480;28;20103;-84
2023/06/30 03:14:24;;;;;;;0.00;0.00;;;;;;;21.75;100.00;101434.03;10423084;28;20042;-84
2023/06/30 03:19:27;;;;;;;0.00;0.00;;;;;;;21.18;100.00;101448.63;10425482;28;20132;-84
2023/06/30 03:24:28;;;;;;;0.00;0.00;;;;;;;21.28;100.00;101445.88;10408108;28;20168;-84
2023/06/30 03:29:30;;;;;;;0.00;0.00;;;;;;;21.12;100.00;101442.56;10408187;28;20128;-84
2023/06/30 03:34:32;;;;;;;0.00;0.00;;;;;;;20.90;100.00;101448.00;10408607;28;20053;-84
2023/06/30 03:39:34;;;;;;;0.00;0.00;;;;;;;20.79;100.00;101444.56;10410328;28;20399;-84
2023/06/30 03:44:36;;;;;;;0.00;0.00;;;;;;;21.06;100.00;101441.75;10416089;28;20049;-84
2023/06/30 03:49:39;;;;;;;0.00;0.00;;;;;;;21.01;100.00;101447.91;10412018;28;20057;-84
2023/06/30 03:54:41;;;;;;;0.00;0.00;;;;;;;21.01;100.00;101445.28;10414950;28;20049;-83
2023/06/30 03:59:43;;;;;;;0.00;0.00;;;;;;;20.67;100.00;101441.16;10432294;28;20478;-83
2023/06/30 04:04:45;;;;;;;0.00;0.00;;;;;;;20.63;100.00;101428.94;10396142;28;20075;-84
2023/06/30 04:09:47;;;;;;;0.00;0.00;;;;;;;20.26;100.00;101437.94;10413746;28;20066;-83
2023/06/30 04:14:48;;;;;;;0.00;0.00;;;;;;;20.52;100.00;101434.28;10415118;28;20479;-84
2023/06/30 04:19:50;;;;;;;0.00;0.00;;;;;;;20.77;100.00;101427.13;10414041;28;20038;-83
2023/06/30 04:24:52;;;;;;;0.00;0.00;;;;;;;20.45;100.00;101429.94;10415466;28;20052;-83
2023/06/30 04:29:53;;;;;;;0.03;0.03;;;;;;;21.03;100.00;101428.66;10425211;28;20506;-84
2023/06/30 04:34:57;;;;;;;64.85;57.67;;;;;;;20.18;100.00;101423.19;10413702;28;20045;-84
2023/06/30 04:39:59;;;;;;;0.17;0.17;;;;;;;20.50;100.00;101420.34;10430714;28;20041;-84
2023/06/30 04:45:02;;;;;;;0.10;0.00;;;;;;;20.60;100.00;101419.38;10413626;28;20095;-83
2023/06/30 04:50:04;;;;;;;0.10;0.10;;;;;;;20.59;100.00;101417.63;10412937;28;20048;-84
2023/06/30 04:55:06;;;;;;;0.00;0.00;;;;;;;20.73;100.00;101421.94;10396755;28;20112;-84
2023/06/30 05:00:09;;;;;;;1.27;0.30;;;;;;;21.13;100.00;101431.19;10412404;28;20095;-84
2023/06/30 05:05:10;;;;;;;0.40;0.30;;;;;;;21.16;100.00;101429.41;10413328;28;20249;-83
2023/06/30 05:10:12;;;;;;;0.52;0.20;;;;;;;21.65;100.00;101429.78;10429421;28;20041;-83
2023/06/30 05:15:14;;;;;;;0.10;0.10;;;;;;;21.27;100.00;101433.66;10421482;28;20519;-85
2023/06/30 05:20:15;;;;;;;0.90;0.20;;;;;;;20.91;100.00;101442.72;10412595;28;20049;-83
2023/06/30 05:25:17;;;;;;;0.20;0.10;;;;;;;21.13;100.00;101445.16;10412504;28;20041;-83
2023/06/30 05:30:19;;;;;;;0.70;0.10;;;;;;;21.31;100.00;101448.50;10396024;28;20417;-84
2023/06/30 05:35:20;;;;;;;0.00;0.00;;;;;;;21.10;100.00;101449.56;10401067;28;20048;-84
2023/06/30 05:40:22;;;;;;;0.00;0.00;;;;;;;21.52;100.00;101445.63;10410172;28;20073;-84
2023/06/30 05:45:25;;;;;;;0.00;0.00;;;;;;;22.28;100.00;101449.09;10410429;28;20522;-84
2023/06/30 05:50:28;;;;;;;0.00;0.00;;;;;;;21.88;100.00;101455.75;10409739;28;20128;-84
2023/06/30 05:55:30;;;;;;;0.00;0.00;;;;;;;22.43;100.00;101456.78;10411176;28;20461;-84
2023/06/30 06:00:32;;;;;;;0.03;0.03;;;;;;;22.05;100.00;101446.75;10397302;28;20047;-86
2023/06/30 06:05:33;;;;;;;0.35;0.10;;;;;;;21.67;100.00;101457.72;10397870;28;20055;-84
2023/06/30 06:10:35;;;;;;;0.20;0.05;;;;;;;21.61;100.00;101457.78;10427677;28;20042;-85
2023/06/30 06:15:37;;;;;;;1.17;0.32;;;;;;;21.81;100.00;101465.44;10410613;28;20506;-85
2023/06/30 06:20:39;;;;;;;0.05;0.05;;;;;;;22.07;100.00;101456.38;10394054;28;20060;-85
2023/06/30 06:25:41;;;;;;;0.73;0.22;;;;;;;23.00;100.00;101462.03;10394769;28;20045;-85
2023/06/30 06:30:45;;;;;;;0.00;0.00;;;;;;;21.69;100.00;101461.19;10421198;28;20040;-86
2023/06/30 06:35:51;;;;;;;1.85;0.65;;;;;;;22.67;100.00;101467.81;10409862;28;20041;-85
2023/06/30 06:40:52;;;;;;;0.00;0.00;;;;;;;22.25;100.00;101457.00;10424113;28;20037;-84
2023/06/30 06:45:54;;;;;;;0.00;0.00;;;;;;;22.90;100.00;101464.78;10394306;28;20052;-87
2023/06/30 06:51:00;;;;;;;0.10;0.05;;;;;;;23.41;100.00;101457.78;10402926;28;20037;-85
2023/06/30 06:56:03;;;;;;;0.00;0.00;;;;;;;22.96;100.00;101459.44;10426137;28;20555;-86
2023/06/30 07:01:05;;;;;;;0.50;0.20;;;;;;;23.41;100.00;101463.94;10409885;28;20045;-85
2023/06/30 07:06:07;;;;;;;0.10;0.10;;;;;;;23.43;100.00;101464.75;10394002;28;20049;-85
2023/06/30 07:11:10;;;;;;;0.00;0.00;;;;;;;23.49;100.00;101468.19;10406952;28;20087;-86
2023/06/30 07:16:12;;;;;;;0.05;0.05;;;;;;;24.27;100.00;101447.28;10431821;28;20503;-85
2023/06/30 07:21:14;;;;;;;0.00;0.00;;;;;;;24.69;100.00;101457.72;10413413;28;20045;-85
2023/06/30 07:26:16;;;;;;;0.10;0.10;;;;;;;24.46;100.00;101457.41;10401318;28;20055;-86
2023/06/30 07:31:17;;;;;;;1999.90;999.90;;;;;;;24.93;100.00;101457.16;10413285;28;20046;-86
2023/06/30 07:36:19;;;;;;;1999.90;999.90;;;;;;;25.34;100.00;101453.44;10419446;28;20045;-84
2023/06/30 07:41:21;;;;;;;1999.90;999.90;;;;;;;25.94;100.00;101450.00;10435570;28;20048;-85
2023/06/30 07:46:22;;;;;;;1999.90;999.90;;;;;;;25.90;100.00;101445.75;10418888;28;20403;-84
2023/06/30 07:51:25;;;;;;;1999.90;999.90;;;;;;;26.52;100.00;101444.72;10403519;28;20045;-84
2023/06/30 07:56:26;;;;;;;28.48;26.15;;;;;;;26.66;100.00;101446.03;10418450;28;20034;-84
2023/06/30 08:01:28;;;;;;;1999.90;999.90;;;;;;;25.64;100.00;101457.91;10415395;28;20042;-84
2023/06/30 08:06:29;;;;;;;1999.90;999.90;;;;;;;26.68;100.00;101455.63;10432393;28;20052;-84
2023/06/30 08:11:31;;;;;;;1999.90;999.90;;;;;;;26.62;100.00;101462.94;10408604;28;20045;-84
2023/06/30 08:16:33;;;;;;;1999.90;999.90;;;;;;;26.73;100.00;101452.84;10419919;28;20057;-85
2023/06/30 08:21:34;;;;;;;0.30;0.00;;;;;;;27.83;100.00;101447.22;10419376;28;20037;-83
2023/06/30 08:26:36;;;;;;;0.35;0.28;;;;;;;27.26;100.00;101456.38;10410556;28;20049;-85
2023/06/30 08:31:38;;;;;;;0.47;0.47;;;;;;;27.66;100.00;101442.59;10415702;28;20048;-84
2023/06/30 08:36:39;;;;;;;0.00;0.00;;;;;;;26.33;100.00;101447.09;10415824;28;20077;-85
2023/06/30 08:41:42;;;;;;;0.10;0.00;;;;;;;26.25;100.00;101446.47;10418355;28;20051;-86
2023/06/30 08:46:44;;;;;;;0.00;0.00;;;;;;;26.37;100.00;101445.22;10403500;28;20053;-85
2023/06/30 08:51:46;;;;;;;0.10;0.08;;;;;;;27.37;100.00;101444.50;10418982;28;20053;-85
2023/06/30 08:56:48;;;;;;;0.00;0.00;;;;;;;25.92;100.00;101449.19;10413869;28;20047;-83
2023/06/30 09:01:50;;;;;;;0.10;0.10;;;;;;;27.51;100.00;101435.22;10416808;28;20057;-85
2023/06/30 09:06:52;;;;;;;0.00;0.00;;;;;;;26.02;100.00;101440.09;10411414;28;20052;-85
2023/06/30 09:11:55;;;;;;;0.00;0.00;;;;;;;27.01;100.00;101447.53;10396350;28;20056;-83
2023/06/30 09:16:57;;;;;;;0.30;0.17;;;;;;;25.71;100.00;101451.53;10432689;28;20041;-84
2023/06/30 09:21:59;;;;;;;0.00;0.00;;;;;;;27.57;100.00;101436.78;10438808;28;20038;-83
2023/06/30 09:27:25;;;;;;;0.00;0.00;;;;;;;27.13;100.00;101418.91;10432561;28;20042;-84
2023/06/30 09:32:32;;;;;;;0.00;0.00;;;;;;;26.79;100.00;101431.53;10424754;28;20048;-83
2023/06/30 09:37:41;;;;;;;0.00;0.00;;;;;;;26.99;100.00;101422.91;10407364;28;20490;-83
2023/06/30 09:42:44;;;;;;;0.08;0.08;;;;;;;27.63;100.00;101412.72;10416303;28;20538;-83
2023/06/30 09:47:53;;;;;;;0.00;0.00;;;;;;;28.26;100.00;101404.13;10399359;28;20053;-84
2023/06/30 09:53:00;;;;;;;3.10;0.05;;;;;;;27.84;98.74;101405.75;10407294;28;20042;-85
2023/06/30 09:58:02;;;;;;;2.35;0.10;;;;;;;27.21;100.00;101412.44;10432163;28;20045;-84
2023/06/30 10:03:06;;;;;;;0.00;0.00;;;;;;;27.44;98.80;101408.09;10407765;28;20049;-84
2023/06/30 10:08:09;;;;;;;0.00;0.00;;;;;;;28.67;96.94;101395.38;10401291;28;20045;-84
2023/06/30 10:13:12;;;;;;;0.00;0.00;;;;;;;28.57;100.00;101395.78;10399765;28;20045;-84
2023/06/30 10:18:16;;;;;;;0.00;0.00;;;;;;;27.37;97.19;101402.16;10414082;28;20329;-84
2023/06/30 10:23:19;;;;;;;0.73;0.35;;;;;;;27.61;94.97;101398.69;10398881;28;20408;-84
2023/06/30 10:28:22;;;;;;;0.20;0.05;;;;;;;27.30;100.00;101397.13;10414201;28;20049;-84
2023/06/30 10:33:23;;;;;;;0.20;0.20;;;;;;;29.09;96.02;101392.66;10397145;28;20059;-83
2023/06/30 10:38:26;;;;;;;0.00;0.00;;;;;;;29.07;98.71;101386.59;10414245;28;20083;-84
2023/06/30 10:43:27;;;;;;;0.00;0.00;;;;;;;28.42;91.67;101381.34;10405195;28;20086;-84
2023/06/30 10:48:29;;;;;;;0.00;0.00;;;;;;;28.27;94.14;101372.28;10397038;28;20124;-84
2023/06/30 10:53:31;;;;;;;0.00;0.00;;;;;;;26.95;99.82;101378.13;10413718;28;20038;-83
2023/06/30 10:58:40;;;;;;;0.00;0.00;;;;;;;28.17;100.00;101366.50;10397093;28;20046;-84
2023/06/30 11:03:57;;;;;;;0.22;0.22;;;;;;;27.37;100.00;101374.81;10429933;28;20500;-83
2023/06/30 11:09:09;;;;;;;0.00;0.00;;;;;;;27.97;99.27;101374.34;10403590;28;20042;-83
2023/06/30 11:14:11;;;;;;;0.70;0.10;;;;;;;27.14;99.85;101370.41;10397402;28;20452;-83
2023/06/30 11:19:24;;;;;;;0.32;0.00;;;;;;;27.64;99.20;101366.81;10405306;28;20049;-83
2023/06/30 11:24:26;;;;;;;0.10;0.00;;;;;;;27.51;99.76;101356.72;10397014;28;20056;-84
2023/06/30 11:29:28;;;;;;;0.00;0.00;;;;;;;27.68;99.14;101356.06;10430181;28;20041;-83
2023/06/30 11:34:30;;;;;;;0.00;0.00;;;;;;;28.32;96.59;101354.38;10414656;28;20492;-85
2023/06/30 11:39:34;;;;;;;0.00;0.00;;;;;;;28.76;97.45;101347.28;10429151;28;20049;-83
2023/06/30 11:44:36;;;;;;;0.00;0.00;;;;;;;27.73;92.37;101355.88;10412109;28;20381;-83
2023/06/30 11:49:38;;;;;;;0.00;0.00;;;;;;;27.61;97.41;101356.34;10395945;28;20542;-84
2023/06/30 11:54:40;;;;;;;0.25;0.10;;;;;;;26.11;98.89;101365.91;10412942;28;20061;-83
2023/06/30 11:59:42;;;;;;;0.00;0.00;;;;;;;26.00;99.65;101364.50;10428415;28;20663;-83
2023/06/30 12:04:48;;;;;;;0.10;0.10;;;;;;;25.61;100.00;101355.97;10420346;28;20514;-83
2023/06/30 12:10:00;;;;;;;0.00;0.00;;;;;;;28.30;99.31;101348.28;10420237;28;20188;-82
2023/06/30 12:15:11;;;;;;;0.00;0.00;;;;;;;28.11;90.03;101342.88;10418752;28;20142;-84
2023/06/30 12:20:21;;;;;;;0.57;0.20;;;;;;;28.33;90.48;101344.69;10414212;28;20045;-83
2023/06/30 12:25:26;;;;;;;0.03;0.03;;;;;;;28.78;93.29;101330.38;10396801;28;20136;-84
2023/06/30 12:30:28;;;;;;;0.10;0.10;;;;;;;28.87;95.52;101331.78;10419349;28;20068;-84
2023/06/30 12:35:39;;;;;;;0.00;0.00;;;;;;;28.52;92.33;101335.94;10405493;28;20041;-83
2023/06/30 12:40:41;;;;;;;0.00;0.00;;;;;;;28.99;92.71;101321.53;10435226;28;20045;-85
2023/06/30 12:45:43;;;;;;;0.00;0.00;;;;;;;28.20;89.64;101316.94;10434966;28;20103;-83
2023/06/30 12:50:45;;;;;;;0.00;0.00;;;;;;;28.07;91.54;101312.16;10418606;28;20548;-83
2023/06/30 12:55:47;;;;;;;0.00;0.00;;;;;;;26.28;93.85;101324.88;10420431;28;20064;-82
2023/06/30 13:00:53;;;;;;;0.10;0.10;;;;;;;27.74;99.69;101299.34;10415602;28;20132;-83
2023/06/30 13:05:55;;;;;;;0.08;0.08;;;;;;;27.48;97.03;101297.72;10395186;28;20072;-82
2023/06/30 13:10:56;;;;;;;0.00;0.00;;;;;;;27.35;94.45;101289.38;10409394;28;20044;-84
2023/06/30 13:15:58;;;;;;;0.00;0.00;;;;;;;28.01;95.54;101275.31;10411418;28;20047;-83
2023/06/30 13:21:00;;;;;;;0.13;0.10;;;;;;;28.27;91.45;101255.72;10421195;28;20558;-82
2023/06/30 13:26:02;;;;;;;0.00;0.00;;;;;;;28.30;99.73;101262.66;10431944;28;20060;-84
2023/06/30 13:31:07;;;;;;;0.00;0.00;;;;;;;29.10;92.46;101253.81;10416124;28;20048;-83
2023/06/30 13:36:10;;;;;;;0.00;0.00;;;;;;;29.26;89.53;101255.75;10415553;28;20123;-83
2023/06/30 13:41:12;;;;;;;0.13;0.08;;;;;;;28.51;94.49;101250.28;10433821;28;20063;-82
2023/06/30 13:46:14;;;;;;;0.30;0.10;;;;;;;27.67;94.86;101255.50;10432797;28;20042;-82
2023/06/30 13:51:15;;;;;;;0.10;0.10;;;;;;;28.15;93.28;101243.84;10416752;28;20124;-82
2023/06/30 13:56:18;;;;;;;0.10;0.10;;;;;;;26.87;94.81;101254.16;10417717;28;20064;-83
2023/06/30 14:01:20;;;;;;;0.00;0.00;;;;;;;27.04;97.20;101242.94;10414569;28;20434;-83
2023/06/30 14:06:21;;;;;;;0.10;0.10;;;;;;;27.70;95.06;101228.94;10398307;28;20069;-81
2023/06/30 14:11:23;;;;;;;0.57;0.00;;;;;;;28.43;92.85;101218.78;10411492;28;20052;-82
2023/06/30 14:16:25;;;;;;;0.00;0.00;;;;;;;28.74;92.56;101206.84;10397711;28;20056;-83
2023/06/30 14:21:27;;;;;;;0.10;0.10;;;;;;;27.96;90.26;101211.13;10414594;28;20072;-83
2023/06/30 14:26:31;;;;;;;0.57;0.55;;;;;;;27.88;87.06;101198.19;10418658;28;20049;-82
2023/06/30 14:31:35;;;;;;;0.00;0.00;;;;;;;27.99;90.42;101198.59;10400805;28;20049;-82
2023/06/30 14:36:37;;;;;;;0.22;0.10;;;;;;;27.99;89.26;101197.72;10410957;28;20048;-83
2023/06/30 14:41:38;;;;;;;0.32;0.10;;;;;;;28.15;90.90;101204.13;10412312;28;20040;-82
2023/06/30 14:46:50;;;;;;;0.25;0.25;;;;;;;28.40;94.08;101180.97;10402974;28;20056;-84
2023/06/30 14:51:52;;;;;;;0.00;0.00;;;;;;;28.36;85.44;101187.34;10420029;28;20048;-83
2023/06/30 14:56:53;;;;;;;0.00;0.00;;;;;;;28.33;90.79;101191.00;10428914;28;20049;-82
2023/06/30 15:01:55;;;;;;;0.93;0.17;;;;;;;28.72;91.50;101176.88;10420255;28;20051;-82
2023/06/30 15:06:57;;;;;;;0.05;0.00;;;;;;;27.33;90.49;101177.47;10397391;28;20045;-81
2023/06/30 15:11:58;;;;;;;0.00;0.00;;;;;;;27.70;90.29;101176.00;10416374;28;20049;-82
2023/06/30 15:17:00;;;;;;;0.90;0.52;;;;;;;28.02;90.72;101165.81;10395926;28;20055;-83
2023/06/30 15:22:01;;;;;;;0.10;0.10;;;;;;;27.20;93.75;101167.41;10412884;28;20049;-83
2023/06/30 15:27:04;;;;;;;0.10;0.10;;;;;;;26.66;94.08;101160.63;10428994;28;20543;-83
2023/06/30 15:32:06;;;;;;;0.43;0.20;;;;;;;26.72;92.68;101155.13;10429465;28;20062;-83
2023/06/30 15:37:08;;;;;;;0.40;0.35;;;;;;;26.53;96.04;101155.81;10400626;28;20411;-83
2023/06/30 15:42:10;;;;;;;0.00;0.00;;;;;;;27.66;91.80;101153.25;10442814;28;20052;-82
2023/06/30 15:47:12;;;;;;;0.00;0.00;;;;;;;27.22;93.20;101147.00;10422275;28;20045;-82
2023/06/30 15:52:13;;;;;;;221.93;26.98;;;;;;;27.41;97.11;101154.22;10429130;28;20095;-82
2023/06/30 15:57:15;;;;;;;0.50;0.30;;;;;;;27.49;95.63;101152.16;10426396;28;20048;-82
2023/06/30 16:02:17;;;;;;;0.28;0.13;;;;;;;27.20;96.03;101146.25;10420254;28;20043;-83
2023/06/30 16:07:44;;;;;;;0.00;0.00;;;;;;;27.44;93.17;101127.66;10420075;28;20040;-83
2023/06/30 16:12:46;;;;;;;0.10;0.00;;;;;;;27.24;94.66;101137.25;10415842;28;20073;-83
2023/06/30 16:17:48;;;;;;;0.13;0.13;;;;;;;27.37;93.92;101120.84;10429999;28;20129;-82
2023/06/30 16:22:50;;;;;;;0.20;0.20;;;;;;;26.95;93.69;101121.69;10439029;28;20052;-84
2023/06/30 16:27:51;;;;;;;0.43;0.30;;;;;;;26.86;93.81;101113.19;10418101;28;20397;-84
2023/06/30 16:32:55;;;;;;;0.15;0.15;;;;;;;26.29;93.07;101108.25;10419314;28;20052;-84
2023/06/30 16:37:57;;;;;;;0.15;0.10;;;;;;;27.11;95.60;101099.00;10402384;28;20072;-82
2023/06/30 16:42:58;;;;;;;0.35;0.32;;;;;;;26.97;96.56;101098.69;10421174;28;20068;-84
2023/06/30 16:48:00;;;;;;;0.10;0.10;;;;;;;27.19;96.20;101082.81;10419798;28;20045;-83
2023/06/30 16:53:01;;;;;;;0.43;0.38;;;;;;;26.63;94.85;101082.34;10416869;28;20053;-83
2023/06/30 16:58:03;;;;;;;0.55;0.52;;;;;;;26.27;96.75;101074.91;10405233;28;20046;-83
2023/06/30 17:03:05;;;;;;;0.10;0.10;;;;;;;26.61;94.05;101063.03;10436488;28;20844;-84
2023/06/30 17:08:07;;;;;;;0.10;0.10;;;;;;;27.59;93.96;101061.81;10418826;28;20076;-81
2023/06/30 17:13:09;;;;;;;2.30;0.77;;;;;;;27.09;94.11;101063.81;10415193;28;20467;-83
2023/06/30 17:18:10;;;;;;;1.00;0.40;;;;;;;26.81;94.87;101064.94;10422742;28;20120;-85
2023/06/30 17:23:12;;;;;;;1.00;0.65;;;;;;;28.33;94.19;101061.19;10433870;28;20116;-83
2023/06/30 17:28:14;;;;;;;0.17;0.10;;;;;;;27.62;95.54;101051.94;10394975;28;20498;-83
2023/06/30 17:33:16;;;;;;;0.47;0.25;;;;;;;27.46;97.07;101051.72;10404783;28;20050;-83
2023/06/30 17:38:17;;;;;;;0.25;0.17;;;;;;;27.06;95.00;101046.31;10421944;28;20041;-84
2023/06/30 17:43:19;;;;;;;0.20;0.08;;;;;;;27.72;94.87;101044.47;10427769;28;20052;-83
2023/06/30 17:48:21;;;;;;;0.10;0.10;;;;;;;26.85;95.49;101040.09;10412452;28;20052;-83
2023/06/30 17:53:23;;;;;;;0.32;0.20;;;;;;;27.10;92.89;101028.53;10411934;28;20408;-83
2023/06/30 17:58:24;;;;;;;0.40;0.20;;;;;;;27.22;93.89;101025.34;10410630;28;20128;-81
2023/06/30 18:03:26;;;;;;;0.17;0.17;;;;;;;27.38;96.91;101028.22;10421197;28;20041;-80
2023/06/30 18:08:28;;;;;;;0.03;0.03;;;;;;;27.13;96.79;101027.53;10403925;28;20483;-81
2023/06/30 18:13:32;;;;;;;0.15;0.08;;;;;;;27.33;96.28;101024.06;10414274;28;20132;-80
2023/06/30 18:18:33;;;;;;;0.00;0.00;;;;;;;27.11;96.41;101030.25;10413313;28;20049;-81
2023/06/30 18:23:35;;;;;;;0.30;0.05;;;;;;;27.02;98.35;101017.41;10429244;28;20048;-81
2023/06/30 18:28:37;;;;;;;0.17;0.17;;;;;;;27.28;96.88;101015.47;10413036;28;20053;-81
2023/06/30 18:33:38;;;;;;;0.20;0.05;;;;;;;26.62;100.00;101017.22;10395630;28;20045;-81
2023/06/30 18:38:43;;;;;;;0.10;0.10;;;;;;;26.35;99.75;101013.88;10388824;28;20049;-81
2023/06/30 18:43:44;;;;;;;0.05;0.05;;;;;;;26.32;99.04;101016.63;10411592;28;20049;-81
2023/06/30 18:48:46;;;;;;;0.10;0.10;;;;;;;26.26;100.00;101007.16;10408238;28;20049;-81
2023/06/30 18:53:48;;;;;;;0.00;0.00;;;;;;;26.00;100.00;101008.13;10428357;28;20100;-81
2023/06/30 18:58:56;;;;;;;0.10;0.10;;;;;;;26.07;98.06;101009.59;10411940;28;20056;-81
2023/06/30 19:03:58;;;;;;;0.10;0.10;;;;;;;25.98;99.26;101005.53;10427890;28;20051;-80
2023/06/30 19:09:00;;;;;;;0.38;0.35;;;;;;;25.98;99.58;101006.38;10410637;28;20157;-81
2023/06/30 19:14:02;;;;;;;0.00;0.00;;;;;;;26.03;99.94;101003.59;10410666;28;20488;-81
2023/06/30 19:19:03;;;;;;;0.10;0.10;;;;;;;26.30;98.26;101011.41;10412671;28;20101;-81
2023/06/30 19:24:06;;;;;;;0.00;0.00;;;;;;;26.25;99.30;101014.22;10404263;28;20467;-82
2023/06/30 19:29:07;;;;;;;0.00;0.00;;;;;;;26.04;100.00;101007.06;10413261;28;20500;-82
2023/06/30 19:34:09;;;;;;;0.35;0.25;;;;;;;25.77;100.00;101013.31;10413383;28;20096;-82
2023/06/30 19:39:11;;;;;;;0.10;0.10;;;;;;;25.95;100.00;101006.50;10396877;28;20056;-81
2023/06/30 19:44:12;;;;;;;0.10;0.10;;;;;;;26.02;100.00;101007.13;10412784;28;20592;-82
2023/06/30 19:49:14;;;;;;;0.00;0.00;;;;;;;26.47;100.00;101013.41;10429265;28;20053;-82
2023/06/30 19:54:16;;;;;;;0.32;0.10;;;;;;;27.37;100.00;101009.75;10414293;28;20053;-82
2023/06/30 19:59:17;;;;;;;0.20;0.10;;;;;;;27.33;100.00;101008.19;10412710;28;20049;-81
2023/06/30 20:04:19;;;;;;;0.00;0.00;;;;;;;26.65;100.00;101014.47;10414015;28;20506;-81
2023/06/30 20:09:21;;;;;;;0.00;0.00;;;;;;;25.66;100.00;101005.78;10429466;28;20063;-82
2023/06/30 20:14:23;;;;;;;0.17;0.13;;;;;;;25.58;100.00;101007.81;10404827;28;20052;-82
2023/06/30 20:19:24;;;;;;;0.15;0.03;;;;;;;26.12;100.00;100997.13;10406818;28;20045;-82
2023/06/30 20:24:26;;;;;;;0.43;0.00;;;;;;;26.04;100.00;100994.75;10423467;28;20056;-83
2023/06/30 20:29:28;;;;;;;0.00;0.00;;;;;;;25.52;100.00;100992.22;10424649;28;20063;-82
2023/06/30 20:34:30;;;;;;;0.35;0.22;;;;;;;25.21;100.00;100987.97;10439146;28;20045;-81
2023/06/30 20:39:32;;;;;;;0.00;0.00;;;;;;;25.43;100.00;100992.56;10418987;28;20049;-81
2023/06/30 20:44:34;;;;;;;0.00;0.00;;;;;;;25.08;100.00;100999.84;10417720;28;20564;-81
2023/06/30 20:49:35;;;;;;;0.00;0.00;;;;;;;25.13;100.00;100995.31;10418677;28;20053;-81
2023/06/30 20:54:37;;;;;;;0.55;0.08;;;;;;;24.99;100.00;100996.59;10418364;28;20087;-82
2023/06/30 20:59:39;;;;;;;0.10;0.10;;;;;;;25.14;100.00;100991.72;10401085;28;20051;-82
2023/06/30 21:04:40;;;;;;;0.20;0.10;;;;;;;24.82;100.00;101001.59;10418807;28;20060;-82
2023/06/30 21:09:43;;;;;;;0.38;0.10;;;;;;;24.92;100.00;100992.44;10418012;28;20506;-82
2023/06/30 21:14:45;;;;;;;0.98;0.15;;;;;;;24.78;100.00;100984.13;10418957;28;20400;-82
2023/06/30 21:19:46;;;;;;;0.20;0.10;;;;;;;24.17;100.00;100977.19;10417681;28;20057;-83
2023/06/30 21:24:48;;;;;;;0.03;0.03;;;;;;;23.81;100.00;100985.22;10417861;28;20057;-82
2023/06/30 21:29:49;;;;;;;0.60;0.17;;;;;;;23.64;100.00;100973.44;10420720;28;20097;-83
2023/06/30 21:34:51;;;;;;;0.70;0.15;;;;;;;23.97;100.00;100969.91;10406005;28;20061;-83
2023/06/30 21:39:53;;;;;;;0.03;0.03;;;;;;;23.80;100.00;100962.44;10429647;28;20040;-83
2023/06/30 21:44:55;;;;;;;0.20;0.20;;;;;;;24.13;100.00;100955.38;10452995;28;20117;-83
2023/06/30 21:49:56;;;;;;;0.15;0.15;;;;;;;24.19;100.00;100954.31;10445014;28;20049;-83
2023/06/30 21:54:58;;;;;;;0.70;0.30;;;;;;;24.51;100.00;100944.59;10459840;28;20069;-83
2023/06/30 22:00:00;;;;;;;0.00;0.00;;;;;;;24.36;100.00;100933.63;10413533;28;20049;-83
2023/06/30 22:05:06;;;;;;;0.00;0.00;;;;;;;24.18;100.00;100926.28;10439591;28;20057;-83
2023/06/30 22:10:08;;;;;;;0.10;0.10;;;;;;;24.02;100.00;100916.22;10426432;28;20054;-82
2023/06/30 22:15:10;;;;;;;1.08;0.30;;;;;;;24.32;100.00;100912.69;10418670;28;20489;-83
2023/06/30 22:20:11;;;;;;;2.28;0.40;;;;;;;23.73;100.00;100904.75;10437087;28;20041;-83
2023/06/30 22:25:17;;;;;;;1.00;0.10;;;;;;;23.98;100.00;100904.06;10437260;28;20055;-83
2023/06/30 22:30:19;;;;;;;0.00;0.00;;;;;;;23.71;100.00;100906.59;10383736;28;20496;-82
2023/06/30 22:35:21;;;;;;;0.08;0.08;;;;;;;23.91;100.00;100891.97;10414106;28;20407;-82
2023/06/30 22:40:22;;;;;;;0.20;0.10;;;;;;;24.28;100.00;100885.63;10415251;28;20072;-82
2023/06/30 22:45:24;;;;;;;0.30;0.10;;;;;;;24.24;100.00;100879.59;10413968;28;20037;-82
2023/06/30 22:50:26;;;;;;;0.32;0.30;;;;;;;24.12;100.00;100874.72;10397692;28;20045;-80
2023/06/30 22:55:27;;;;;;;0.00;0.00;;;;;;;24.02;100.00;100871.47;10414628;28;20500;-82